SCL weather

Comodoro Arturo Merino Benítez International Airport
Santiago, Santiago Metropolitan Region, Chile

Public forecast

Using degrees Celsius for public forecast. Weather courtesy of forecast.io.

Current aviation weather report (METAR) for Comodoro Arturo Merino Benítez International Airport

Retrieved 2019/10/21 04:00 UTC (42 minutes ago):

SCEL 210400Z 17005KT CAVOK 11/04 Q1023 NOSIG

Aviation forecast (TAF) for Comodoro Arturo Merino Benítez International Airport

Retrieved 2019-10-21 00:00 UTC (5 hours ago):

TAF SCEL 202206Z 2100/2124 16008KT CAVOK TX26/2119Z TN07/2111Z TEMPO 2108/2114 VRB02KT 7000 NSC BECMG 2116/2118 17008KT BECMG 2122/2200 22013KT